Time;durP1;ratioP1;P1;durP2;ratioP2;P2;SDS_P1;SDS_P2;PMS_P1;PMS_P2;Temp;Humidity;BMP_temperature;BMP_pressure;BME280_temperature;BME280_humidity;BME280_pressure;Samples;Min_cycle;Max_cycle;Signal;HPM_P1;HPM_P2
2023/12/20 00:02:00;;;;;;;26.40;5.07;;;;;;;;;;5071653;28;20029;-76
2023/12/20 00:04:26;;;;;;;37.15;4.72;;;;;;;;;;5071661;28;20092;-76
2023/12/20 00:06:52;;;;;;;27.98;3.97;;;;;;;;;;5070352;28;20024;-76
2023/12/20 00:09:18;;;;;;;36.70;6.18;;;;;;;;;;5085946;28;20040;-76
2023/12/20 00:11:46;;;;;;;30.90;4.40;;;;;;;;;;5070982;28;20028;-76
2023/12/20 00:14:12;;;;;;;25.77;4.15;;;;;;;;;;5070689;28;20033;-75
2023/12/20 00:16:38;;;;;;;35.00;4.32;;;;;;;;;;5070486;28;20043;-76
2023/12/20 00:19:04;;;;;;;23.38;4.07;;;;;;;;;;5070941;28;20036;-75
2023/12/20 00:21:30;;;;;;;39.25;6.07;;;;;;;;;;5069103;28;20127;-76
2023/12/20 00:23:56;;;;;;;29.90;4.50;;;;;;;;;;5086874;28;20048;-76
2023/12/20 00:26:23;;;;;;;40.75;5.50;;;;;;;;;;5071072;28;20109;-76
2023/12/20 00:28:49;;;;;;;31.45;5.00;;;;;;;;;;5052957;28;20048;-76
2023/12/20 00:31:15;;;;;;;34.22;4.47;;;;;;;;;;5069518;28;20089;-75
2023/12/20 00:33:43;;;;;;;29.50;4.00;;;;;;;;;;5086392;28;20035;-76
2023/12/20 00:36:09;;;;;;;37.45;5.10;;;;;;;;;;5068820;28;20032;-76
2023/12/20 00:38:35;;;;;;;42.90;5.35;;;;;;;;;;5070484;28;20028;-78
2023/12/20 00:41:02;;;;;;;40.25;4.68;;;;;;;;;;5069322;28;20047;-77
2023/12/20 00:43:28;;;;;;;37.88;6.13;;;;;;;;;;5069877;28;20052;-76
2023/12/20 00:45:55;;;;;;;37.17;5.25;;;;;;;;;;5072717;28;20036;-76
2023/12/20 00:48:21;;;;;;;33.83;5.07;;;;;;;;;;5070636;28;20021;-76
2023/12/20 00:50:47;;;;;;;42.47;7.32;;;;;;;;;;5068719;28;20024;-77
2023/12/20 00:53:13;;;;;;;39.28;6.05;;;;;;;;;;5071630;28;20035;-76
2023/12/20 00:55:40;;;;;;;56.72;8.55;;;;;;;;;;5086068;28;20032;-77
2023/12/20 00:58:07;;;;;;;32.42;4.82;;;;;;;;;;5069171;28;20098;-76
2023/12/20 01:00:33;;;;;;;31.70;6.57;;;;;;;;;;5070776;28;20121;-76
2023/12/20 01:02:59;;;;;;;38.03;6.60;;;;;;;;;;5071431;28;20038;-76
2023/12/20 01:05:25;;;;;;;37.70;4.70;;;;;;;;;;5070078;28;20128;-76
2023/12/20 01:07:52;;;;;;;21.88;4.07;;;;;;;;;;5070556;28;20051;-76
2023/12/20 01:10:18;;;;;;;33.00;5.15;;;;;;;;;;5051299;28;20131;-76
2023/12/20 01:12:44;;;;;;;32.15;4.95;;;;;;;;;;5069608;28;20074;-76
2023/12/20 01:15:11;;;;;;;39.70;5.70;;;;;;;;;;5069081;28;20512;-76
2023/12/20 01:17:37;;;;;;;38.58;5.55;;;;;;;;;;5069106;28;20017;-76
2023/12/20 01:20:03;;;;;;;36.25;5.35;;;;;;;;;;5068865;28;20036;-76
2023/12/20 01:22:30;;;;;;;41.00;5.10;;;;;;;;;;5070892;28;20043;-75
2023/12/20 01:24:56;;;;;;;38.90;5.70;;;;;;;;;;5069157;28;20082;-75
2023/12/20 01:27:22;;;;;;;29.98;4.88;;;;;;;;;;5068931;28;20094;-76
2023/12/20 01:29:48;;;;;;;40.05;6.90;;;;;;;;;;5069438;28;20060;-76
2023/12/20 01:32:15;;;;;;;31.70;5.72;;;;;;;;;;5068056;28;20490;-76
2023/12/20 01:34:41;;;;;;;34.22;5.95;;;;;;;;;;5068809;28;20036;-76
2023/12/20 01:37:07;;;;;;;30.63;5.85;;;;;;;;;;5069314;28;20074;-76
2023/12/20 01:39:34;;;;;;;38.10;4.55;;;;;;;;;;5068672;28;20051;-76
2023/12/20 01:42:00;;;;;;;48.47;5.72;;;;;;;;;;5068983;28;20035;-76
2023/12/20 01:44:26;;;;;;;41.13;5.65;;;;;;;;;;5071748;28;20085;-75
2023/12/20 01:46:53;;;;;;;49.03;6.60;;;;;;;;;;5076449;28;20043;-76
2023/12/20 01:49:19;;;;;;;47.22;7.38;;;;;;;;;;5069185;28;20470;-75
2023/12/20 01:51:45;;;;;;;46.47;6.43;;;;;;;;;;5084936;28;20512;-76
2023/12/20 01:54:12;;;;;;;37.08;6.05;;;;;;;;;;5071853;28;20044;-76
2023/12/20 01:56:38;;;;;;;45.88;5.78;;;;;;;;;;5089447;28;20028;-75
2023/12/20 01:59:04;;;;;;;36.38;5.47;;;;;;;;;;5068570;28;20134;-76
2023/12/20 02:01:31;;;;;;;44.97;5.72;;;;;;;;;;5069508;28;20024;-76
2023/12/20 02:03:57;;;;;;;38.47;5.75;;;;;;;;;;5067673;28;20121;-76
2023/12/20 02:06:24;;;;;;;35.13;6.47;;;;;;;;;;5084280;28;20043;-76
2023/12/20 02:08:50;;;;;;;36.47;6.07;;;;;;;;;;5068811;28;20484;-75
2023/12/20 02:11:17;;;;;;;37.15;6.43;;;;;;;;;;5068177;28;20053;-76
2023/12/20 02:13:43;;;;;;;35.42;5.97;;;;;;;;;;5067074;28;20191;-75
2023/12/20 02:16:09;;;;;;;38.63;5.93;;;;;;;;;;5083988;28;20123;-75
2023/12/20 02:18:35;;;;;;;39.83;6.97;;;;;;;;;;5068672;28;20095;-76
2023/12/20 02:21:01;;;;;;;39.75;5.53;;;;;;;;;;5084714;28;20028;-76
2023/12/20 02:23:27;;;;;;;43.40;5.78;;;;;;;;;;5069289;28;20107;-76
2023/12/20 02:25:55;;;;;;;37.88;5.68;;;;;;;;;;5069360;28;20039;-76
2023/12/20 02:28:22;;;;;;;55.78;6.25;;;;;;;;;;5084911;28;20123;-76
2023/12/20 02:30:49;;;;;;;40.13;6.03;;;;;;;;;;5084543;28;20021;-76
2023/12/20 02:33:16;;;;;;;39.13;5.72;;;;;;;;;;5068038;28;20077;-77
2023/12/20 02:35:42;;;;;;;29.40;5.65;;;;;;;;;;5066499;28;20493;-76
2023/12/20 02:38:08;;;;;;;30.05;4.90;;;;;;;;;;5067109;28;20399;-76
2023/12/20 02:40:34;;;;;;;36.35;5.68;;;;;;;;;;5067547;28;20024;-75
2023/12/20 02:43:00;;;;;;;50.60;7.43;;;;;;;;;;5067463;28;20036;-75
2023/12/20 02:45:27;;;;;;;27.52;4.60;;;;;;;;;;5070399;28;20045;-75
2023/12/20 02:47:53;;;;;;;33.40;6.25;;;;;;;;;;5069264;28;20041;-75
2023/12/20 02:50:19;;;;;;;37.38;5.25;;;;;;;;;;5067882;28;20056;-75
2023/12/20 02:52:46;;;;;;;39.00;8.13;;;;;;;;;;5067175;28;20396;-75
2023/12/20 02:55:12;;;;;;;41.22;5.57;;;;;;;;;;5068335;28;20142;-74
2023/12/20 02:57:41;;;;;;;39.13;7.15;;;;;;;;;;5069120;28;20024;-74
2023/12/20 03:00:09;;;;;;;37.10;7.32;;;;;;;;;;5067723;28;20173;-74
2023/12/20 03:02:35;;;;;;;38.53;6.18;;;;;;;;;;5067241;28;20021;-75
2023/12/20 03:05:01;;;;;;;31.85;5.28;;;;;;;;;;5068891;28;20064;-74
2023/12/20 03:07:27;;;;;;;29.45;4.80;;;;;;;;;;5068970;28;20086;-74
2023/12/20 03:09:54;;;;;;;47.08;5.22;;;;;;;;;;5066995;28;20044;-74
2023/12/20 03:12:20;;;;;;;35.80;5.13;;;;;;;;;;5066433;28;20028;-76
2023/12/20 03:14:46;;;;;;;28.73;5.68;;;;;;;;;;5083368;28;20039;-76
2023/12/20 03:17:12;;;;;;;32.65;5.35;;;;;;;;;;5066052;28;20025;-76
2023/12/20 03:19:38;;;;;;;33.45;5.32;;;;;;;;;;5067242;28;20107;-75
2023/12/20 03:22:04;;;;;;;37.30;8.75;;;;;;;;;;5066947;28;20036;-76
2023/12/20 03:24:30;;;;;;;31.27;4.20;;;;;;;;;;5050621;28;20052;-76
2023/12/20 03:26:57;;;;;;;32.08;5.15;;;;;;;;;;5066030;28;20037;-75
2023/12/20 03:29:23;;;;;;;31.05;6.07;;;;;;;;;;5068769;28;20486;-75
2023/12/20 03:31:50;;;;;;;31.58;4.55;;;;;;;;;;5050431;28;20020;-75
2023/12/20 03:34:16;;;;;;;33.40;5.55;;;;;;;;;;5067874;28;20043;-75
2023/12/20 03:36:42;;;;;;;34.75;5.45;;;;;;;;;;5067562;28;20103;-75
2023/12/20 03:39:10;;;;;;;33.20;5.28;;;;;;;;;;5067489;28;20055;-75
2023/12/20 03:41:36;;;;;;;40.70;5.85;;;;;;;;;;5066999;28;20043;-74
2023/12/20 03:44:02;;;;;;;34.90;5.43;;;;;;;;;;5067542;28;20036;-75
2023/12/20 03:46:28;;;;;;;35.30;6.05;;;;;;;;;;5067432;28;20090;-75
2023/12/20 03:48:54;;;;;;;27.45;4.95;;;;;;;;;;5063608;28;20032;-74
2023/12/20 03:51:20;;;;;;;27.60;4.53;;;;;;;;;;5065097;28;20093;-76
2023/12/20 03:53:46;;;;;;;36.45;5.70;;;;;;;;;;5066146;28;20029;-75
2023/12/20 03:56:13;;;;;;;41.58;5.88;;;;;;;;;;5064435;28;20353;-76
2023/12/20 03:58:39;;;;;;;38.75;6.53;;;;;;;;;;5066804;28;20082;-74
2023/12/20 04:01:10;;;;;;;33.20;5.40;;;;;;;;;;5067515;28;20029;-76
2023/12/20 04:03:36;;;;;;;45.72;7.18;;;;;;;;;;5082642;28;20091;-75
2023/12/20 04:06:02;;;;;;;38.75;5.03;;;;;;;;;;5066167;28;20127;-74
2023/12/20 04:08:28;;;;;;;25.10;5.07;;;;;;;;;;5067466;28;20040;-76
2023/12/20 04:10:55;;;;;;;38.38;5.55;;;;;;;;;;5067036;28;20049;-75
2023/12/20 04:13:21;;;;;;;32.38;4.75;;;;;;;;;;5068368;28;20618;-73
2023/12/20 04:15:47;;;;;;;27.75;5.05;;;;;;;;;;5067535;28;20117;-77
2023/12/20 04:18:14;;;;;;;27.48;5.63;;;;;;;;;;5068830;28;20040;-75
2023/12/20 04:20:40;;;;;;;37.60;5.43;;;;;;;;;;5067140;28;20086;-75
2023/12/20 04:23:06;;;;;;;41.90;6.85;;;;;;;;;;5069165;28;20036;-76
2023/12/20 04:25:32;;;;;;;39.92;5.03;;;;;;;;;;5086387;28;20040;-77
2023/12/20 04:27:58;;;;;;;37.55;4.50;;;;;;;;;;5069137;28;20036;-76
2023/12/20 04:30:24;;;;;;;33.05;5.85;;;;;;;;;;5070879;28;20041;-76
2023/12/20 04:32:50;;;;;;;29.02;5.05;;;;;;;;;;5070103;28;20051;-75
2023/12/20 04:35:16;;;;;;;35.08;5.28;;;;;;;;;;5070895;28;20036;-75
2023/12/20 04:37:43;;;;;;;30.60;4.78;;;;;;;;;;5070988;28;20028;-75
2023/12/20 04:40:09;;;;;;;29.55;5.45;;;;;;;;;;5070356;28;20063;-75
2023/12/20 04:42:35;;;;;;;35.35;4.97;;;;;;;;;;5071137;28;20033;-75
2023/12/20 04:45:01;;;;;;;30.63;5.43;;;;;;;;;;5072266;28;20033;-75
2023/12/20 04:47:27;;;;;;;34.50;5.93;;;;;;;;;;5070508;28;20114;-75
2023/12/20 04:49:53;;;;;;;39.00;5.55;;;;;;;;;;5070325;28;20051;-73
2023/12/20 04:52:19;;;;;;;33.38;5.85;;;;;;;;;;5070803;28;20016;-76
2023/12/20 04:54:46;;;;;;;32.22;5.35;;;;;;;;;;5069495;28;20021;-75
2023/12/20 04:57:12;;;;;;;34.63;5.60;;;;;;;;;;5070107;28;20473;-76
2023/12/20 04:59:38;;;;;;;30.88;4.60;;;;;;;;;;5069813;28;20316;-75
2023/12/20 05:02:04;;;;;;;26.63;4.88;;;;;;;;;;5068745;28;20028;-74
2023/12/20 05:04:30;;;;;;;41.45;5.18;;;;;;;;;;5068540;28;20040;-76
2023/12/20 05:06:56;;;;;;;29.83;4.75;;;;;;;;;;5085799;28;20048;-76
2023/12/20 05:09:23;;;;;;;39.10;5.35;;;;;;;;;;5085274;28;20051;-75
2023/12/20 05:11:49;;;;;;;33.65;4.78;;;;;;;;;;5069151;28;20054;-75
2023/12/20 05:14:15;;;;;;;33.83;6.30;;;;;;;;;;5070552;28;20020;-74
2023/12/20 05:16:41;;;;;;;30.52;4.65;;;;;;;;;;5084454;28;20090;-76
2023/12/20 05:19:07;;;;;;;36.60;5.40;;;;;;;;;;5067723;28;20035;-75
2023/12/20 05:21:33;;;;;;;35.22;5.60;;;;;;;;;;5069178;28;20078;-75
2023/12/20 05:24:00;;;;;;;35.22;5.35;;;;;;;;;;5085474;28;20025;-77
2023/12/20 05:26:26;;;;;;;32.50;6.03;;;;;;;;;;5069924;28;20029;-75
2023/12/20 05:28:52;;;;;;;43.95;5.28;;;;;;;;;;5085566;28;20066;-75
2023/12/20 05:31:19;;;;;;;32.97;4.75;;;;;;;;;;5068760;28;20128;-75
2023/12/20 05:33:45;;;;;;;43.70;6.47;;;;;;;;;;5071160;28;20094;-73
2023/12/20 05:36:13;;;;;;;31.88;5.35;;;;;;;;;;5070137;28;20058;-76
2023/12/20 05:38:39;;;;;;;33.45;4.90;;;;;;;;;;5067648;28;20044;-75
2023/12/20 05:41:05;;;;;;;25.17;4.30;;;;;;;;;;5068754;28;20032;-76
2023/12/20 05:43:32;;;;;;;37.22;5.45;;;;;;;;;;5067792;28;20040;-75
2023/12/20 05:45:58;;;;;;;39.17;5.50;;;;;;;;;;5069227;28;20502;-76
2023/12/20 05:48:24;;;;;;;37.47;6.07;;;;;;;;;;5067496;28;20346;-75
2023/12/20 05:50:51;;;;;;;33.55;5.03;;;;;;;;;;5050101;28;20244;-75
2023/12/20 05:53:17;;;;;;;28.50;5.53;;;;;;;;;;5067616;28;20036;-75
2023/12/20 05:55:43;;;;;;;26.55;5.30;;;;;;;;;;5067066;28;20038;-76
2023/12/20 05:58:09;;;;;;;27.73;5.10;;;;;;;;;;5051323;28;20036;-76
2023/12/20 06:00:35;;;;;;;32.20;5.43;;;;;;;;;;5083929;28;20044;-76
2023/12/20 06:03:01;;;;;;;31.10;4.40;;;;;;;;;;5084743;28;20040;-76
2023/12/20 06:05:28;;;;;;;35.20;4.75;;;;;;;;;;5068547;28;20044;-76
2023/12/20 06:07:56;;;;;;;36.25;6.25;;;;;;;;;;5051587;28;20044;-76
2023/12/20 06:10:22;;;;;;;28.75;6.13;;;;;;;;;;5066536;28;20471;-76
2023/12/20 06:12:50;;;;;;;35.58;4.53;;;;;;;;;;5065806;28;20102;-76
2023/12/20 06:15:16;;;;;;;30.95;4.53;;;;;;;;;;5053445;28;20078;-75
2023/12/20 06:17:42;;;;;;;34.50;4.68;;;;;;;;;;5072611;28;20043;-77
2023/12/20 06:20:08;;;;;;;34.08;5.40;;;;;;;;;;5066245;28;20417;-76
2023/12/20 06:22:35;;;;;;;43.35;5.05;;;;;;;;;;5069351;28;20052;-76
2023/12/20 06:25:02;;;;;;;31.88;5.95;;;;;;;;;;5061602;28;20116;-75
2023/12/20 06:27:29;;;;;;;33.58;5.35;;;;;;;;;;5083795;28;20040;-75
2023/12/20 06:29:55;;;;;;;36.22;4.63;;;;;;;;;;5068916;28;20040;-74
2023/12/20 06:32:23;;;;;;;38.47;5.50;;;;;;;;;;5070647;28;20115;-77
2023/12/20 06:34:49;;;;;;;41.13;5.50;;;;;;;;;;5072836;28;20046;-78
2023/12/20 06:37:15;;;;;;;25.55;5.35;;;;;;;;;;5083677;28;20023;-77
2023/12/20 06:39:41;;;;;;;36.17;5.10;;;;;;;;;;5067901;28;20946;-78
2023/12/20 06:42:07;;;;;;;33.72;5.32;;;;;;;;;;5067706;28;20037;-78
2023/12/20 06:44:34;;;;;;;33.33;5.13;;;;;;;;;;5083531;28;20115;-76
2023/12/20 06:47:01;;;;;;;31.63;5.63;;;;;;;;;;5067093;28;20032;-75
2023/12/20 06:49:28;;;;;;;30.85;5.53;;;;;;;;;;5050863;28;20028;-76
2023/12/20 06:51:54;;;;;;;30.58;5.50;;;;;;;;;;5072004;28;20047;-76
2023/12/20 06:54:20;;;;;;;29.55;5.03;;;;;;;;;;5066886;28;20094;-76
2023/12/20 06:56:46;;;;;;;32.78;5.75;;;;;;;;;;5085076;28;20036;-75
2023/12/20 06:59:13;;;;;;;24.98;5.13;;;;;;;;;;5065202;28;20263;-76
2023/12/20 07:01:39;;;;;;;22.27;3.97;;;;;;;;;;5065805;28;20032;-77
2023/12/20 07:04:05;;;;;;;39.00;5.18;;;;;;;;;;5083458;28;20089;-76
2023/12/20 07:06:31;;;;;;;39.15;6.00;;;;;;;;;;5066561;28;20074;-76
2023/12/20 07:08:57;;;;;;;50.38;5.45;;;;;;;;;;5066522;28;20095;-76
2023/12/20 07:11:24;;;;;;;31.88;6.15;;;;;;;;;;5082698;28;20075;-77
2023/12/20 07:14:01;;;;;;;28.00;5.63;;;;;;;;;;5066548;28;20035;-81
2023/12/20 07:16:27;;;;;;;38.38;4.32;;;;;;;;;;5081105;28;20040;-77
2023/12/20 07:18:53;;;;;;;36.53;5.72;;;;;;;;;;5079872;28;20043;-76
2023/12/20 07:21:20;;;;;;;34.55;5.82;;;;;;;;;;5082953;28;20077;-74
2023/12/20 07:23:46;;;;;;;42.33;5.05;;;;;;;;;;5068081;28;20047;-78
2023/12/20 07:26:12;;;;;;;32.42;5.47;;;;;;;;;;5086036;28;20202;-76
2023/12/20 07:28:38;;;;;;;29.75;4.97;;;;;;;;;;5067396;28;20040;-77
2023/12/20 07:31:04;;;;;;;33.63;5.25;;;;;;;;;;5070686;28;20036;-75
2023/12/20 07:33:30;;;;;;;26.92;4.80;;;;;;;;;;5086010;28;20036;-75
2023/12/20 07:35:56;;;;;;;36.47;5.65;;;;;;;;;;5085664;28;20036;-76
2023/12/20 07:38:23;;;;;;;28.27;5.90;;;;;;;;;;5084331;28;20511;-76
2023/12/20 07:40:49;;;;;;;32.92;4.35;;;;;;;;;;5082132;28;20217;-75
2023/12/20 07:43:15;;;;;;;43.50;7.40;;;;;;;;;;5089613;28;20032;-76
2023/12/20 07:45:41;;;;;;;32.65;5.05;;;;;;;;;;5067931;28;20067;-76
2023/12/20 07:48:08;;;;;;;27.27;5.10;;;;;;;;;;5077474;28;20040;-75
2023/12/20 07:50:35;;;;;;;35.22;5.30;;;;;;;;;;5079678;28;20108;-76
2023/12/20 07:53:01;;;;;;;31.10;4.93;;;;;;;;;;5065706;28;20028;-76
2023/12/20 07:55:30;;;;;;;36.58;5.97;;;;;;;;;;5051899;28;20102;-76
2023/12/20 07:57:56;;;;;;;39.05;5.15;;;;;;;;;;5050635;28;20109;-76
2023/12/20 08:00:22;;;;;;;36.08;5.55;;;;;;;;;;5050291;28;20021;-75
2023/12/20 08:02:48;;;;;;;39.25;6.78;;;;;;;;;;5067375;28;20123;-76
2023/12/20 08:05:14;;;;;;;34.20;6.20;;;;;;;;;;5063708;28;20029;-76
2023/12/20 08:07:40;;;;;;;28.05;4.65;;;;;;;;;;5049435;28;20094;-76
2023/12/20 08:10:07;;;;;;;33.08;5.82;;;;;;;;;;5051328;28;20055;-74
2023/12/20 08:12:34;;;;;;;34.00;5.68;;;;;;;;;;5034990;28;20486;-77
2023/12/20 08:15:01;;;;;;;30.52;4.53;;;;;;;;;;5065386;28;20428;-78
2023/12/20 08:17:28;;;;;;;27.55;4.65;;;;;;;;;;5033283;28;20036;-75
2023/12/20 08:19:54;;;;;;;39.33;5.53;;;;;;;;;;5051210;28;20108;-75
2023/12/20 08:22:20;;;;;;;34.53;5.68;;;;;;;;;;5062163;28;20127;-76
2023/12/20 08:24:46;;;;;;;34.95;5.80;;;;;;;;;;5064179;28;20025;-76
2023/12/20 08:27:12;;;;;;;37.55;5.45;;;;;;;;;;5033592;28;20408;-76
2023/12/20 08:29:39;;;;;;;30.90;5.68;;;;;;;;;;5049950;28;20041;-76
2023/12/20 08:32:06;;;;;;;35.42;5.93;;;;;;;;;;5052391;28;20037;-76
2023/12/20 08:34:32;;;;;;;31.05;5.85;;;;;;;;;;5049356;28;20039;-74
2023/12/20 08:36:58;;;;;;;33.25;5.57;;;;;;;;;;5051739;28;20044;-76
2023/12/20 08:39:24;;;;;;;29.13;4.75;;;;;;;;;;5054443;28;20036;-76
2023/12/20 08:41:50;;;;;;;26.08;4.10;;;;;;;;;;5057874;28;20037;-76
2023/12/20 08:44:16;;;;;;;37.28;4.97;;;;;;;;;;5050050;28;20088;-75
2023/12/20 08:46:43;;;;;;;36.50;6.40;;;;;;;;;;5049752;28;20314;-76
2023/12/20 08:49:09;;;;;;;35.28;5.80;;;;;;;;;;5051768;28;20040;-76
2023/12/20 08:51:35;;;;;;;27.55;4.13;;;;;;;;;;5069364;28;20044;-75
2023/12/20 08:54:02;;;;;;;26.73;5.07;;;;;;;;;;5051889;28;20119;-76
2023/12/20 08:56:28;;;;;;;29.30;4.60;;;;;;;;;;5049525;28;20029;-74
2023/12/20 08:58:54;;;;;;;26.27;5.10;;;;;;;;;;5033752;28;20048;-75
2023/12/20 09:01:20;;;;;;;28.88;4.72;;;;;;;;;;5058098;28;20033;-76
2023/12/20 09:03:46;;;;;;;28.50;5.72;;;;;;;;;;5050361;28;20044;-75
2023/12/20 09:06:12;;;;;;;28.48;5.18;;;;;;;;;;5047651;28;20486;-76
2023/12/20 09:08:38;;;;;;;27.55;5.85;;;;;;;;;;5047929;28;20115;-76
2023/12/20 09:11:04;;;;;;;26.90;4.38;;;;;;;;;;5052518;28;20099;-75
2023/12/20 09:13:31;;;;;;;27.30;5.28;;;;;;;;;;5048981;28;20473;-78
2023/12/20 09:15:57;;;;;;;26.58;5.50;;;;;;;;;;5050387;28;20090;-76
2023/12/20 09:18:24;;;;;;;30.75;4.80;;;;;;;;;;5030799;28;20025;-75
2023/12/20 09:20:50;;;;;;;26.52;4.75;;;;;;;;;;5048061;28;20045;-76
2023/12/20 09:23:18;;;;;;;27.08;3.90;;;;;;;;;;5048112;28;20029;-76
2023/12/20 09:25:45;;;;;;;27.25;4.72;;;;;;;;;;5050355;28;20037;-75
2023/12/20 09:28:12;;;;;;;29.80;4.20;;;;;;;;;;5048213;28;20045;-76
2023/12/20 09:30:39;;;;;;;27.77;5.03;;;;;;;;;;5059054;28;20036;-75
2023/12/20 09:33:07;;;;;;;32.92;4.88;;;;;;;;;;5066799;28;20460;-76
2023/12/20 09:35:33;;;;;;;25.38;5.25;;;;;;;;;;5049880;28;20120;-78
2023/12/20 09:37:59;;;;;;;27.85;4.40;;;;;;;;;;5050353;28;20029;-76
2023/12/20 09:40:27;;;;;;;22.65;5.18;;;;;;;;;;5045901;28;20169;-75
2023/12/20 09:42:56;;;;;;;29.63;4.57;;;;;;;;;;5047761;28;20725;-77
2023/12/20 09:45:22;;;;;;;30.42;4.28;;;;;;;;;;5050554;28;20103;-74
2023/12/20 09:47:53;;;;;;;25.30;4.28;;;;;;;;;;5049404;28;20083;-76
2023/12/20 09:50:20;;;;;;;26.60;5.22;;;;;;;;;;5046321;28;20469;-76
2023/12/20 09:52:50;;;;;;;36.33;5.43;;;;;;;;;;5048084;28;20025;-77
2023/12/20 09:55:17;;;;;;;31.15;5.95;;;;;;;;;;5048993;28;20413;-75
2023/12/20 09:57:43;;;;;;;32.75;5.15;;;;;;;;;;5049624;28;20036;-76
2023/12/20 10:00:10;;;;;;;26.15;4.30;;;;;;;;;;5050376;28;20090;-77
2023/12/20 10:02:42;;;;;;;34.83;6.53;;;;;;;;;;5046929;28;20029;-76
2023/12/20 10:05:08;;;;;;;28.52;4.45;;;;;;;;;;5049693;28;20025;-76
2023/12/20 10:07:37;;;;;;;27.13;5.63;;;;;;;;;;5039551;28;20364;-75
2023/12/20 10:10:05;;;;;;;33.72;5.80;;;;;;;;;;5038554;28;20103;-75
2023/12/20 10:12:31;;;;;;;30.02;4.05;;;;;;;;;;5044308;28;20037;-77
2023/12/20 10:14:58;;;;;;;31.33;5.53;;;;;;;;;;5047732;28;20028;-75
2023/12/20 10:17:25;;;;;;;23.83;4.68;;;;;;;;;;5044743;28;20071;-74
2023/12/20 10:19:51;;;;;;;29.30;4.97;;;;;;;;;;5045019;28;20094;-76
2023/12/20 10:22:17;;;;;;;32.55;5.15;;;;;;;;;;5044657;28;20090;-77
2023/12/20 10:24:43;;;;;;;35.70;5.40;;;;;;;;;;5041531;28;20033;-76
2023/12/20 10:27:10;;;;;;;35.20;5.45;;;;;;;;;;5045204;28;20513;-76
2023/12/20 10:29:37;;;;;;;33.92;5.35;;;;;;;;;;5030609;28;20151;-75
2023/12/20 10:32:26;;;;;;;30.58;4.13;;;;;;;;;;5045623;28;20029;-75
2023/12/20 10:34:53;;;;;;;28.33;4.47;;;;;;;;;;5044944;28;20072;-76
2023/12/20 10:37:19;;;;;;;33.38;4.80;;;;;;;;;;5046891;28;20112;-74
2023/12/20 10:39:51;;;;;;;24.65;4.15;;;;;;;;;;5048163;28;20047;-76
2023/12/20 10:42:17;;;;;;;32.78;4.57;;;;;;;;;;5046487;28;20043;-76
2023/12/20 10:44:44;;;;;;;34.10;6.30;;;;;;;;;;5046344;28;20056;-76
2023/12/20 10:47:12;;;;;;;23.52;3.70;;;;;;;;;;5045761;28;20021;-75
2023/12/20 10:49:39;;;;;;;26.63;5.43;;;;;;;;;;5045198;28;20132;-76
2023/12/20 10:52:06;;;;;;;33.40;4.10;;;;;;;;;;5045185;28;20017;-75
2023/12/20 10:54:33;;;;;;;29.02;4.00;;;;;;;;;;5047118;28;20033;-76
2023/12/20 10:57:00;;;;;;;26.92;4.88;;;;;;;;;;5040216;28;20087;-74
2023/12/20 10:59:28;;;;;;;27.60;3.90;;;;;;;;;;5040676;28;20076;-75
2023/12/20 11:01:55;;;;;;;28.63;4.70;;;;;;;;;;5056425;28;20513;-75
2023/12/20 11:04:29;;;;;;;27.75;4.40;;;;;;;;;;5027404;28;20063;-76
2023/12/20 11:06:59;;;;;;;33.63;4.97;;;;;;;;;;5046065;28;20083;-76
2023/12/20 11:09:37;;;;;;;24.33;4.45;;;;;;;;;;5053968;28;20102;-78
2023/12/20 11:12:04;;;;;;;36.88;4.82;;;;;;;;;;5052679;28;20048;-76
2023/12/20 11:14:35;;;;;;;18.42;4.60;;;;;;;;;;5044984;28;20024;-76
2023/12/20 11:17:16;;;;;;;22.10;3.80;;;;;;;;;;5045134;28;20159;-76
2023/12/20 11:19:43;;;;;;;;;;;;;;;;;;5044730;28;20152;-76
2023/12/20 11:22:10;;;;;;;28.10;4.65;;;;;;;;;;5043345;28;19909;-76
2023/12/20 11:24:40;;;;;;;23.23;4.07;;;;;;;;;;5043462;28;20037;-76
2023/12/20 11:27:06;;;;;;;28.05;4.13;;;;;;;;;;5047186;28;20535;-75
2023/12/20 11:29:33;;;;;;;26.45;4.28;;;;;;;;;;5044983;28;20064;-74
2023/12/20 11:32:01;;;;;;;29.38;5.05;;;;;;;;;;5042393;28;20501;-77
2023/12/20 11:34:28;;;;;;;33.28;4.07;;;;;;;;;;5047028;28;20447;-74
2023/12/20 11:36:59;;;;;;;24.63;5.05;;;;;;;;;;5044970;28;20029;-75
2023/12/20 11:39:26;;;;;;;22.15;3.97;;;;;;;;;;5045491;28;20159;-76
2023/12/20 11:41:52;;;;;;;32.53;6.25;;;;;;;;;;5044626;28;20520;-76
2023/12/20 11:44:19;;;;;;;22.38;3.92;;;;;;;;;;5041965;28;20394;-75
2023/12/20 11:46:45;;;;;;;27.67;3.95;;;;;;;;;;5041785;28;20045;-75
2023/12/20 11:49:11;;;;;;;30.63;5.47;;;;;;;;;;5042762;28;20029;-76
2023/12/20 11:51:42;;;;;;;18.73;3.60;;;;;;;;;;5044548;28;20098;-75
2023/12/20 11:54:08;;;;;;;25.67;4.00;;;;;;;;;;5039613;28;20021;-75
2023/12/20 11:56:36;;;;;;;22.13;4.57;;;;;;;;;;5044573;28;20079;-76
2023/12/20 11:59:02;;;;;;;24.42;4.32;;;;;;;;;;5045251;28;20036;-76
2023/12/20 12:01:28;;;;;;;32.03;5.10;;;;;;;;;;5045786;28;20024;-76
2023/12/20 12:04:03;;;;;;;31.17;4.75;;;;;;;;;;5038535;28;20045;-74
2023/12/20 12:06:29;;;;;;;18.20;3.75;;;;;;;;;;5045488;28;20040;-76
2023/12/20 12:08:55;;;;;;;20.35;3.60;;;;;;;;;;5044276;28;20052;-75
2023/12/20 12:11:22;;;;;;;30.70;3.72;;;;;;;;;;5046445;28;20508;-75
2023/12/20 12:13:49;;;;;;;20.35;3.80;;;;;;;;;;5041667;28;20150;-76
2023/12/20 12:16:19;;;;;;;21.27;4.05;;;;;;;;;;5044699;28;20029;-75
2023/12/20 12:18:45;;;;;;;26.53;4.73;;;;;;;;;;5044632;28;20122;-74
2023/12/20 12:21:20;;;;;;;26.73;5.25;;;;;;;;;;5045632;28;20433;-75
2023/12/20 12:23:46;;;;;;;30.48;4.22;;;;;;;;;;5045206;28;20458;-76
2023/12/20 12:26:12;;;;;;;26.60;4.03;;;;;;;;;;5044377;28;20035;-75
2023/12/20 12:28:42;;;;;;;29.42;4.90;;;;;;;;;;5027560;28;20139;-73
2023/12/20 12:31:09;;;;;;;30.90;5.22;;;;;;;;;;5043412;28;20494;-75
2023/12/20 12:33:35;;;;;;;33.75;4.10;;;;;;;;;;5031129;28;20548;-77
2023/12/20 12:36:03;;;;;;;27.67;4.60;;;;;;;;;;5052209;28;20021;-75
2023/12/20 12:38:30;;;;;;;26.65;4.35;;;;;;;;;;5039485;28;20080;-75
2023/12/20 12:40:57;;;;;;;24.20;5.32;;;;;;;;;;5044089;28;20025;-76
2023/12/20 12:43:23;;;;;;;29.42;5.45;;;;;;;;;;5045341;28;20543;-74
2023/12/20 12:45:49;;;;;;;26.00;4.10;;;;;;;;;;5049586;28;20164;-76
2023/12/20 12:48:15;;;;;;;24.60;4.78;;;;;;;;;;5046658;28;20124;-76
2023/12/20 12:50:42;;;;;;;23.73;4.50;;;;;;;;;;5047436;28;20045;-79
2023/12/20 12:53:08;;;;;;;28.58;4.78;;;;;;;;;;5049130;28;20381;-76
2023/12/20 12:55:36;;;;;;;22.63;5.22;;;;;;;;;;5048932;28;20043;-80
2023/12/20 12:58:02;;;;;;;25.63;4.30;;;;;;;;;;5052939;28;20021;-78
2023/12/20 13:00:28;;;;;;;32.05;5.82;;;;;;;;;;5044569;28;20032;-77
2023/12/20 13:02:54;;;;;;;29.20;4.13;;;;;;;;;;5047746;28;20517;-76
2023/12/20 13:05:20;;;;;;;28.83;3.90;;;;;;;;;;5051808;28;20037;-76
2023/12/20 13:07:47;;;;;;;30.33;5.32;;;;;;;;;;5051282;28;20021;-76
2023/12/20 13:10:16;;;;;;;36.03;4.47;;;;;;;;;;5048048;28;20103;-76
2023/12/20 13:12:42;;;;;;;27.20;3.45;;;;;;;;;;5046705;28;20108;-76
2023/12/20 13:15:09;;;;;;;23.17;4.75;;;;;;;;;;5047029;28;20477;-76
2023/12/20 13:17:35;;;;;;;33.17;4.55;;;;;;;;;;5050424;28;20029;-76
2023/12/20 13:20:01;;;;;;;24.13;3.80;;;;;;;;;;5047070;28;20457;-76
2023/12/20 13:22:28;;;;;;;26.73;4.65;;;;;;;;;;5046538;28;20091;-76
2023/12/20 13:24:54;;;;;;;23.60;4.38;;;;;;;;;;5045964;28;20044;-76
2023/12/20 13:27:20;;;;;;;27.70;5.18;;;;;;;;;;5047067;28;20024;-78
2023/12/20 13:29:46;;;;;;;24.83;4.07;;;;;;;;;;5041196;28;20045;-76
2023/12/20 13:32:12;;;;;;;25.95;4.10;;;;;;;;;;5040272;28;20072;-76
2023/12/20 13:34:38;;;;;;;24.35;4.32;;;;;;;;;;5038566;28;20029;-76
2023/12/20 13:37:04;;;;;;;28.20;4.45;;;;;;;;;;5044390;28;20076;-76
2023/12/20 13:39:31;;;;;;;27.25;3.67;;;;;;;;;;5035188;28;20702;-76
2023/12/20 13:41:57;;;;;;;21.90;3.67;;;;;;;;;;5035895;28;20124;-76
2023/12/20 13:44:24;;;;;;;23.92;4.93;;;;;;;;;;5040788;28;20062;-75
2023/12/20 13:46:50;;;;;;;21.83;3.42;;;;;;;;;;5041892;28;20099;-75
2023/12/20 13:49:16;;;;;;;23.30;4.03;;;;;;;;;;5045341;28;20037;-75
2023/12/20 13:51:42;;;;;;;23.52;4.50;;;;;;;;;;5046176;28;20146;-75
2023/12/20 13:54:10;;;;;;;24.65;4.05;;;;;;;;;;5036126;28;20034;-74
2023/12/20 13:56:36;;;;;;;20.20;4.10;;;;;;;;;;5035773;28;20032;-75
2023/12/20 13:59:03;;;;;;;22.50;3.65;;;;;;;;;;5055789;28;20091;-75
2023/12/20 14:01:29;;;;;;;21.85;4.63;;;;;;;;;;5037231;28;20375;-75
2023/12/20 14:03:55;;;;;;;26.73;4.10;;;;;;;;;;5043202;28;20040;-75
2023/12/20 14:06:21;;;;;;;19.25;3.42;;;;;;;;;;5020621;28;20119;-74
2023/12/20 14:08:48;;;;;;;18.20;3.00;;;;;;;;;;5048888;28;20028;-74
2023/12/20 14:11:15;;;;;;;25.52;4.70;;;;;;;;;;5054765;28;20078;-75
2023/12/20 14:13:41;;;;;;;26.67;4.18;;;;;;;;;;5037481;28;20778;-76
2023/12/20 14:16:07;;;;;;;27.50;5.70;;;;;;;;;;5045090;28;20094;-76
2023/12/20 14:18:34;;;;;;;18.58;3.38;;;;;;;;;;5039700;28;20037;-74
2023/12/20 14:21:00;;;;;;;23.98;3.75;;;;;;;;;;5043176;28;20464;-76
2023/12/20 14:23:26;;;;;;;19.20;3.47;;;;;;;;;;5026690;28;20025;-75
2023/12/20 14:25:52;;;;;;;20.73;3.67;;;;;;;;;;5044816;28;20047;-75
2023/12/20 14:28:18;;;;;;;25.17;4.43;;;;;;;;;;5044648;28;20037;-76